sensor_id;sensor_type;location;lat;lon;timestamp;temperature;humidity
42743;DHT22;28397;44.552;-0.848;2023-02-28T00:00:17;-1.80;99.90
42743;DHT22;28397;44.552;-0.848;2023-02-28T00:02:44;-1.90;99.90
42743;DHT22;28397;44.552;-0.848;2023-02-28T00:05:11;-1.90;99.90
42743;DHT22;28397;44.552;-0.848;2023-02-28T00:07:38;-1.90;99.90
42743;DHT22;28397;44.552;-0.848;2023-02-28T00:10:09;-1.90;99.90
42743;DHT22;28397;44.552;-0.848;2023-02-28T00:12:36;-1.90;99.90
42743;DHT22;28397;44.552;-0.848;2023-02-28T00:15:06;-2.10;99.90
42743;DHT22;28397;44.552;-0.848;2023-02-28T00:17:32;-2.10;99.90
42743;DHT22;28397;44.552;-0.848;2023-02-28T00:19:57;-2.10;99.90
42743;DHT22;28397;44.552;-0.848;2023-02-28T00:22:41;-2.10;99.90
42743;DHT22;28397;44.552;-0.848;2023-02-28T00:25:12;-2.10;99.90
42743;DHT22;28397;44.552;-0.848;2023-02-28T00:27:39;-2.00;99.90
42743;DHT22;28397;44.552;-0.848;2023-02-28T00:30:06;-2.10;99.90
42743;DHT22;28397;44.552;-0.848;2023-02-28T00:32:34;-2.00;99.90
42743;DHT22;28397;44.552;-0.848;2023-02-28T00:35:00;-2.20;99.90
42743;DHT22;28397;44.552;-0.848;2023-02-28T00:37:26;-2.20;99.90
42743;DHT22;28397;44.552;-0.848;2023-02-28T00:39:52;-2.30;99.90
42743;DHT22;28397;44.552;-0.848;2023-02-28T00:42:17;-2.40;99.90
42743;DHT22;28397;44.552;-0.848;2023-02-28T00:44:43;-2.50;99.90
42743;DHT22;28397;44.552;-0.848;2023-02-28T00:47:09;-2.50;99.90
42743;DHT22;28397;44.552;-0.848;2023-02-28T00:49:34;-2.40;99.90
42743;DHT22;28397;44.552;-0.848;2023-02-28T00:52:00;-2.30;99.90
42743;DHT22;28397;44.552;-0.848;2023-02-28T00:54:26;-2.30;99.90
42743;DHT22;28397;44.552;-0.848;2023-02-28T00:56:52;-2.30;99.90
42743;DHT22;28397;44.552;-0.848;2023-02-28T00:59:18;-2.10;99.90
42743;DHT22;28397;44.552;-0.848;2023-02-28T01:01:45;-2.20;99.90
42743;DHT22;28397;44.552;-0.848;2023-02-28T01:04:12;-2.00;99.90
42743;DHT22;28397;44.552;-0.848;2023-02-28T01:06:38;-2.00;99.90
42743;DHT22;28397;44.552;-0.848;2023-02-28T01:09:04;-2.00;99.90
42743;DHT22;28397;44.552;-0.848;2023-02-28T01:11:31;-2.00;99.90
42743;DHT22;28397;44.552;-0.848;2023-02-28T01:13:58;-2.00;99.90
42743;DHT22;28397;44.552;-0.848;2023-02-28T01:16:24;-2.00;99.90
42743;DHT22;28397;44.552;-0.848;2023-02-28T01:18:49;-2.00;99.90
42743;DHT22;28397;44.552;-0.848;2023-02-28T01:21:18;-2.00;99.90
42743;DHT22;28397;44.552;-0.848;2023-02-28T01:23:44;-2.10;99.90
42743;DHT22;28397;44.552;-0.848;2023-02-28T01:26:21;-2.20;99.90
42743;DHT22;28397;44.552;-0.848;2023-02-28T01:28:49;-2.30;99.90
42743;DHT22;28397;44.552;-0.848;2023-02-28T01:31:15;-2.50;99.90
42743;DHT22;28397;44.552;-0.848;2023-02-28T01:33:41;-2.70;99.90
42743;DHT22;28397;44.552;-0.848;2023-02-28T01:36:17;-2.80;99.90
42743;DHT22;28397;44.552;-0.848;2023-02-28T01:38:44;-2.70;99.90
42743;DHT22;28397;44.552;-0.848;2023-02-28T01:41:22;-2.80;99.90
42743;DHT22;28397;44.552;-0.848;2023-02-28T01:46:14;-3.00;99.90
42743;DHT22;28397;44.552;-0.848;2023-02-28T01:51:51;-2.80;99.90
42743;DHT22;28397;44.552;-0.848;2023-02-28T01:54:30;-2.50;99.90
42743;DHT22;28397;44.552;-0.848;2023-02-28T01:57:05;-2.50;99.90
42743;DHT22;28397;44.552;-0.848;2023-02-28T01:59:37;-2.60;99.90
42743;DHT22;28397;44.552;-0.848;2023-02-28T02:02:06;-2.70;99.90
42743;DHT22;28397;44.552;-0.848;2023-02-28T02:04:39;-2.70;99.90
42743;DHT22;28397;44.552;-0.848;2023-02-28T02:07:06;-2.60;99.90
42743;DHT22;28397;44.552;-0.848;2023-02-28T02:09:32;-2.80;99.90
42743;DHT22;28397;44.552;-0.848;2023-02-28T02:12:02;-2.80;99.90
42743;DHT22;28397;44.552;-0.848;2023-02-28T02:14:37;-2.80;99.90
42743;DHT22;28397;44.552;-0.848;2023-02-28T02:28:41;-2.60;99.90
42743;DHT22;28397;44.552;-0.848;2023-02-28T02:34:24;-3.10;99.90
42743;DHT22;28397;44.552;-0.848;2023-02-28T02:40:24;-3.10;99.90
42743;DHT22;28397;44.552;-0.848;2023-02-28T02:43:01;-3.00;99.90
42743;DHT22;28397;44.552;-0.848;2023-02-28T02:45:42;-3.20;99.90
42743;DHT22;28397;44.552;-0.848;2023-02-28T02:48:13;-3.30;99.90
42743;DHT22;28397;44.552;-0.848;2023-02-28T02:50:48;-3.30;99.90
42743;DHT22;28397;44.552;-0.848;2023-02-28T02:53:17;-3.20;99.90
42743;DHT22;28397;44.552;-0.848;2023-02-28T02:55:46;-3.20;99.90
42743;DHT22;28397;44.552;-0.848;2023-02-28T02:58:21;-3.30;99.90
42743;DHT22;28397;44.552;-0.848;2023-02-28T03:00:52;-3.40;99.90
42743;DHT22;28397;44.552;-0.848;2023-02-28T03:03:19;-3.50;99.90
42743;DHT22;28397;44.552;-0.848;2023-02-28T03:06:04;-3.40;99.90
42743;DHT22;28397;44.552;-0.848;2023-02-28T03:08:36;-3.20;99.90
42743;DHT22;28397;44.552;-0.848;2023-02-28T03:11:09;-3.30;99.90
42743;DHT22;28397;44.552;-0.848;2023-02-28T03:13:54;-3.20;99.90
42743;DHT22;28397;44.552;-0.848;2023-02-28T03:24:43;-3.10;99.90
42743;DHT22;28397;44.552;-0.848;2023-02-28T03:27:34;-3.20;99.90
42743;DHT22;28397;44.552;-0.848;2023-02-28T03:30:05;-3.50;99.90
42743;DHT22;28397;44.552;-0.848;2023-02-28T03:35:32;-3.70;99.90
42743;DHT22;28397;44.552;-0.848;2023-02-28T03:38:17;-3.60;99.90
42743;DHT22;28397;44.552;-0.848;2023-02-28T03:40:51;-3.50;99.90
42743;DHT22;28397;44.552;-0.848;2023-02-28T03:43:23;-3.40;99.90
42743;DHT22;28397;44.552;-0.848;2023-02-28T03:45:51;-3.40;99.90
42743;DHT22;28397;44.552;-0.848;2023-02-28T03:50:46;-3.70;99.90
42743;DHT22;28397;44.552;-0.848;2023-02-28T03:53:20;-3.70;99.90
42743;DHT22;28397;44.552;-0.848;2023-02-28T03:56:11;-3.90;99.90
42743;DHT22;28397;44.552;-0.848;2023-02-28T03:59:07;-3.70;99.90
42743;DHT22;28397;44.552;-0.848;2023-02-28T04:01:39;-3.90;99.90
42743;DHT22;28397;44.552;-0.848;2023-02-28T04:04:07;-3.90;99.90
42743;DHT22;28397;44.552;-0.848;2023-02-28T04:06:34;-3.90;99.90
42743;DHT22;28397;44.552;-0.848;2023-02-28T04:09:00;-3.90;99.90
42743;DHT22;28397;44.552;-0.848;2023-02-28T04:11:43;-3.90;99.90
42743;DHT22;28397;44.552;-0.848;2023-02-28T04:14:11;-4.00;99.90
42743;DHT22;28397;44.552;-0.848;2023-02-28T04:16:39;-4.10;99.90
42743;DHT22;28397;44.552;-0.848;2023-02-28T04:19:06;-4.00;99.90
42743;DHT22;28397;44.552;-0.848;2023-02-28T04:21:35;-4.10;99.90
42743;DHT22;28397;44.552;-0.848;2023-02-28T04:24:02;-4.20;99.90
42743;DHT22;28397;44.552;-0.848;2023-02-28T04:26:32;-4.20;99.90
42743;DHT22;28397;44.552;-0.848;2023-02-28T04:28:59;-4.20;99.90
42743;DHT22;28397;44.552;-0.848;2023-02-28T04:31:25;-4.10;99.90
42743;DHT22;28397;44.552;-0.848;2023-02-28T04:33:50;-4.10;99.90
42743;DHT22;28397;44.552;-0.848;2023-02-28T04:36:17;-4.10;99.90
42743;DHT22;28397;44.552;-0.848;2023-02-28T04:38:46;-4.10;99.90
42743;DHT22;28397;44.552;-0.848;2023-02-28T04:41:15;-4.10;99.90
42743;DHT22;28397;44.552;-0.848;2023-02-28T04:43:42;-4.20;99.90
42743;DHT22;28397;44.552;-0.848;2023-02-28T04:46:08;-4.10;99.90
42743;DHT22;28397;44.552;-0.848;2023-02-28T04:48:36;-4.10;99.90
42743;DHT22;28397;44.552;-0.848;2023-02-28T04:51:10;-4.20;99.90
42743;DHT22;28397;44.552;-0.848;2023-02-28T04:53:37;-4.20;99.90
42743;DHT22;28397;44.552;-0.848;2023-02-28T04:56:04;-4.20;99.90
42743;DHT22;28397;44.552;-0.848;2023-02-28T04:58:30;-4.20;99.90
42743;DHT22;28397;44.552;-0.848;2023-02-28T05:04:01;-4.30;99.90
42743;DHT22;28397;44.552;-0.848;2023-02-28T05:06:30;-4.30;99.90
42743;DHT22;28397;44.552;-0.848;2023-02-28T05:08:56;-4.30;99.90
42743;DHT22;28397;44.552;-0.848;2023-02-28T05:13:48;-4.30;99.90
42743;DHT22;28397;44.552;-0.848;2023-02-28T05:16:14;-4.30;99.90
42743;DHT22;28397;44.552;-0.848;2023-02-28T05:18:40;-4.30;99.90
42743;DHT22;28397;44.552;-0.848;2023-02-28T05:21:12;-4.50;99.90
42743;DHT22;28397;44.552;-0.848;2023-02-28T05:23:49;-4.50;99.90
42743;DHT22;28397;44.552;-0.848;2023-02-28T05:26:14;-4.60;99.90
42743;DHT22;28397;44.552;-0.848;2023-02-28T05:28:40;-4.60;99.90
42743;DHT22;28397;44.552;-0.848;2023-02-28T05:31:06;-4.60;99.90
42743;DHT22;28397;44.552;-0.848;2023-02-28T05:33:31;-4.70;99.90
42743;DHT22;28397;44.552;-0.848;2023-02-28T05:35:57;-4.80;99.90
42743;DHT22;28397;44.552;-0.848;2023-02-28T05:38:23;-4.80;99.90
42743;DHT22;28397;44.552;-0.848;2023-02-28T05:40:48;-4.70;99.90
42743;DHT22;28397;44.552;-0.848;2023-02-28T05:43:14;-4.80;99.90
42743;DHT22;28397;44.552;-0.848;2023-02-28T05:45:40;-4.80;99.90
42743;DHT22;28397;44.552;-0.848;2023-02-28T05:48:05;-4.60;99.90
42743;DHT22;28397;44.552;-0.848;2023-02-28T05:50:31;-4.60;99.90
42743;DHT22;28397;44.552;-0.848;2023-02-28T05:52:57;-4.60;99.90
42743;DHT22;28397;44.552;-0.848;2023-02-28T05:55:22;-4.70;99.90
42743;DHT22;28397;44.552;-0.848;2023-02-28T05:57:48;-4.80;99.90
42743;DHT22;28397;44.552;-0.848;2023-02-28T06:00:14;-4.70;99.90
42743;DHT22;28397;44.552;-0.848;2023-02-28T06:02:41;-4.70;99.90
42743;DHT22;28397;44.552;-0.848;2023-02-28T06:05:25;-4.60;99.90
42743;DHT22;28397;44.552;-0.848;2023-02-28T06:07:50;-4.40;99.90
42743;DHT22;28397;44.552;-0.848;2023-02-28T06:10:16;-4.60;99.90
42743;DHT22;28397;44.552;-0.848;2023-02-28T06:12:42;-4.90;99.90
42743;DHT22;28397;44.552;-0.848;2023-02-28T06:15:12;-5.00;99.90
42743;DHT22;28397;44.552;-0.848;2023-02-28T06:17:38;-5.00;99.90
42743;DHT22;28397;44.552;-0.848;2023-02-28T06:20:05;-5.00;99.90
42743;DHT22;28397;44.552;-0.848;2023-02-28T06:22:31;-5.00;99.90
42743;DHT22;28397;44.552;-0.848;2023-02-28T06:24:56;-5.00;99.90
42743;DHT22;28397;44.552;-0.848;2023-02-28T06:27:23;-5.00;99.90
42743;DHT22;28397;44.552;-0.848;2023-02-28T06:29:49;-5.00;99.90
42743;DHT22;28397;44.552;-0.848;2023-02-28T06:32:18;-5.10;99.90
42743;DHT22;28397;44.552;-0.848;2023-02-28T06:34:44;-5.10;99.90
42743;DHT22;28397;44.552;-0.848;2023-02-28T06:37:09;-5.00;99.90
42743;DHT22;28397;44.552;-0.848;2023-02-28T06:39:35;-4.90;99.90
42743;DHT22;28397;44.552;-0.848;2023-02-28T06:42:01;-4.90;99.90
42743;DHT22;28397;44.552;-0.848;2023-02-28T06:44:27;-4.90;99.90
42743;DHT22;28397;44.552;-0.848;2023-02-28T06:47:02;-4.90;99.90
42743;DHT22;28397;44.552;-0.848;2023-02-28T06:49:29;-4.90;99.90
42743;DHT22;28397;44.552;-0.848;2023-02-28T06:51:55;-4.80;99.90
42743;DHT22;28397;44.552;-0.848;2023-02-28T06:54:21;-4.70;99.90
42743;DHT22;28397;44.552;-0.848;2023-02-28T06:56:47;-4.60;99.90
42743;DHT22;28397;44.552;-0.848;2023-02-28T06:59:12;-4.60;99.90
42743;DHT22;28397;44.552;-0.848;2023-02-28T07:01:39;-4.50;99.90
42743;DHT22;28397;44.552;-0.848;2023-02-28T07:04:05;-4.40;99.90
42743;DHT22;28397;44.552;-0.848;2023-02-28T07:06:32;-4.40;99.90
42743;DHT22;28397;44.552;-0.848;2023-02-28T07:08:58;-4.20;99.90
42743;DHT22;28397;44.552;-0.848;2023-02-28T07:11:27;-4.00;99.90
42743;DHT22;28397;44.552;-0.848;2023-02-28T07:13:54;-3.50;99.90
42743;DHT22;28397;44.552;-0.848;2023-02-28T07:16:20;-2.70;99.90
42743;DHT22;28397;44.552;-0.848;2023-02-28T07:18:47;-1.80;99.90
42743;DHT22;28397;44.552;-0.848;2023-02-28T07:21:13;-0.90;99.90
42743;DHT22;28397;44.552;-0.848;2023-02-28T07:23:39;0.50;99.90
42743;DHT22;28397;44.552;-0.848;2023-02-28T07:26:06;3.20;99.90
42743;DHT22;28397;44.552;-0.848;2023-02-28T07:28:32;5.50;99.90
42743;DHT22;28397;44.552;-0.848;2023-02-28T07:31:04;6.40;99.90
42743;DHT22;28397;44.552;-0.848;2023-02-28T07:33:30;7.40;99.90
42743;DHT22;28397;44.552;-0.848;2023-02-28T07:36:04;8.20;99.90
42743;DHT22;28397;44.552;-0.848;2023-02-28T07:38:34;7.90;99.90
42743;DHT22;28397;44.552;-0.848;2023-02-28T07:41:00;8.20;99.90
42743;DHT22;28397;44.552;-0.848;2023-02-28T07:43:26;9.20;99.90
42743;DHT22;28397;44.552;-0.848;2023-02-28T07:45:51;10.00;99.90
42743;DHT22;28397;44.552;-0.848;2023-02-28T07:48:17;10.80;99.90
42743;DHT22;28397;44.552;-0.848;2023-02-28T07:50:43;12.00;99.90
42743;DHT22;28397;44.552;-0.848;2023-02-28T07:53:08;12.20;99.90
42743;DHT22;28397;44.552;-0.848;2023-02-28T07:55:34;11.70;99.90
42743;DHT22;28397;44.552;-0.848;2023-02-28T07:58:00;12.40;99.90
42743;DHT22;28397;44.552;-0.848;2023-02-28T08:00:26;12.50;99.90
42743;DHT22;28397;44.552;-0.848;2023-02-28T08:02:51;15.00;99.90
42743;DHT22;28397;44.552;-0.848;2023-02-28T08:05:17;14.80;97.60
42743;DHT22;28397;44.552;-0.848;2023-02-28T08:07:43;14.20;98.80
42743;DHT22;28397;44.552;-0.848;2023-02-28T08:10:09;13.90;98.70
42743;DHT22;28397;44.552;-0.848;2023-02-28T08:12:35;11.80;97.90
42743;DHT22;28397;44.552;-0.848;2023-02-28T08:15:01;13.20;99.50
42743;DHT22;28397;44.552;-0.848;2023-02-28T08:17:27;13.90;99.60
42743;DHT22;28397;44.552;-0.848;2023-02-28T08:19:53;14.40;95.10
42743;DHT22;28397;44.552;-0.848;2023-02-28T08:22:18;12.00;96.70
42743;DHT22;28397;44.552;-0.848;2023-02-28T08:24:44;12.80;96.70
42743;DHT22;28397;44.552;-0.848;2023-02-28T08:27:10;12.60;96.90
42743;DHT22;28397;44.552;-0.848;2023-02-28T08:29:39;11.90;98.60
42743;DHT22;28397;44.552;-0.848;2023-02-28T08:32:06;12.00;96.10
42743;DHT22;28397;44.552;-0.848;2023-02-28T08:34:32;13.90;96.00
42743;DHT22;28397;44.552;-0.848;2023-02-28T08:36:58;11.70;96.00
42743;DHT22;28397;44.552;-0.848;2023-02-28T08:39:24;15.30;97.00
42743;DHT22;28397;44.552;-0.848;2023-02-28T08:41:50;15.40;97.30
42743;DHT22;28397;44.552;-0.848;2023-02-28T08:44:15;14.30;95.90
42743;DHT22;28397;44.552;-0.848;2023-02-28T08:46:41;17.80;95.90
42743;DHT22;28397;44.552;-0.848;2023-02-28T08:49:08;12.30;94.00
42743;DHT22;28397;44.552;-0.848;2023-02-28T08:51:35;11.70;95.90
42743;DHT22;28397;44.552;-0.848;2023-02-28T08:54:01;16.00;95.30
42743;DHT22;28397;44.552;-0.848;2023-02-28T08:56:28;14.00;93.40
42743;DHT22;28397;44.552;-0.848;2023-02-28T08:58:55;13.20;94.20
42743;DHT22;28397;44.552;-0.848;2023-02-28T09:01:27;13.60;94.40
42743;DHT22;28397;44.552;-0.848;2023-02-28T09:03:53;12.50;95.10
42743;DHT22;28397;44.552;-0.848;2023-02-28T09:06:21;13.40;93.90
42743;DHT22;28397;44.552;-0.848;2023-02-28T09:08:47;12.00;94.80
42743;DHT22;28397;44.552;-0.848;2023-02-28T09:11:12;13.00;94.80
42743;DHT22;28397;44.552;-0.848;2023-02-28T09:13:39;12.90;95.10
42743;DHT22;28397;44.552;-0.848;2023-02-28T09:16:06;12.50;97.00
42743;DHT22;28397;44.552;-0.848;2023-02-28T09:18:35;11.00;95.40
42743;DHT22;28397;44.552;-0.848;2023-02-28T09:21:07;9.90;95.70
42743;DHT22;28397;44.552;-0.848;2023-02-28T09:23:33;11.10;96.20
42743;DHT22;28397;44.552;-0.848;2023-02-28T09:25:59;12.00;97.40
42743;DHT22;28397;44.552;-0.848;2023-02-28T09:28:24;11.00;96.40
42743;DHT22;28397;44.552;-0.848;2023-02-28T09:30:52;10.90;96.60
42743;DHT22;28397;44.552;-0.848;2023-02-28T09:33:19;10.70;96.80
42743;DHT22;28397;44.552;-0.848;2023-02-28T09:35:58;14.10;93.90
42743;DHT22;28397;44.552;-0.848;2023-02-28T09:38:25;13.00;95.10
42743;DHT22;28397;44.552;-0.848;2023-02-28T09:40:53;13.30;94.60
42743;DHT22;28397;44.552;-0.848;2023-02-28T09:43:23;12.10;96.70
42743;DHT22;28397;44.552;-0.848;2023-02-28T09:45:53;12.40;96.30
42743;DHT22;28397;44.552;-0.848;2023-02-28T09:48:32;13.10;94.90
42743;DHT22;28397;44.552;-0.848;2023-02-28T09:51:04;11.70;98.50
42743;DHT22;28397;44.552;-0.848;2023-02-28T09:53:36;11.00;96.90
42743;DHT22;28397;44.552;-0.848;2023-02-28T09:56:31;12.10;96.20
42743;DHT22;28397;44.552;-0.848;2023-02-28T10:02:04;9.90;96.30
42743;DHT22;28397;44.552;-0.848;2023-02-28T10:10:36;8.70;98.10
42743;DHT22;28397;44.552;-0.848;2023-02-28T10:16:06;9.10;99.40
42743;DHT22;28397;44.552;-0.848;2023-02-28T10:18:47;10.80;99.90
42743;DHT22;28397;44.552;-0.848;2023-02-28T10:21:19;10.80;99.20
42743;DHT22;28397;44.552;-0.848;2023-02-28T10:23:48;10.90;96.60
42743;DHT22;28397;44.552;-0.848;2023-02-28T10:26:16;10.90;96.50
42743;DHT22;28397;44.552;-0.848;2023-02-28T10:28:42;10.80;98.10
42743;DHT22;28397;44.552;-0.848;2023-02-28T10:31:14;9.10;97.50
42743;DHT22;28397;44.552;-0.848;2023-02-28T10:33:42;9.00;96.70
42743;DHT22;28397;44.552;-0.848;2023-02-28T10:36:16;9.60;96.40
42743;DHT22;28397;44.552;-0.848;2023-02-28T10:38:44;9.00;98.60
42743;DHT22;28397;44.552;-0.848;2023-02-28T10:41:15;9.50;97.90
42743;DHT22;28397;44.552;-0.848;2023-02-28T10:43:43;10.30;97.50
42743;DHT22;28397;44.552;-0.848;2023-02-28T10:48:44;7.80;98.20
42743;DHT22;28397;44.552;-0.848;2023-02-28T10:51:13;8.90;98.00
42743;DHT22;28397;44.552;-0.848;2023-02-28T10:53:53;8.10;97.90
42743;DHT22;28397;44.552;-0.848;2023-02-28T10:56:26;9.00;99.50
42743;DHT22;28397;44.552;-0.848;2023-02-28T11:04:01;8.00;97.50
42743;DHT22;28397;44.552;-0.848;2023-02-28T11:06:33;7.70;97.90
42743;DHT22;28397;44.552;-0.848;2023-02-28T11:09:31;7.50;97.70
42743;DHT22;28397;44.552;-0.848;2023-02-28T11:11:58;7.90;97.40
42743;DHT22;28397;44.552;-0.848;2023-02-28T11:14:27;8.50;98.80
42743;DHT22;28397;44.552;-0.848;2023-02-28T11:17:03;8.50;95.80
42743;DHT22;28397;44.552;-0.848;2023-02-28T11:19:40;7.80;96.30
42743;DHT22;28397;44.552;-0.848;2023-02-28T11:22:09;8.10;98.20
42743;DHT22;28397;44.552;-0.848;2023-02-28T11:24:41;8.70;97.10
42743;DHT22;28397;44.552;-0.848;2023-02-28T11:27:25;9.60;98.40
42743;DHT22;28397;44.552;-0.848;2023-02-28T11:29:51;10.40;96.70
42743;DHT22;28397;44.552;-0.848;2023-02-28T11:32:22;9.10;96.10
42743;DHT22;28397;44.552;-0.848;2023-02-28T11:37:35;7.70;96.20
42743;DHT22;28397;44.552;-0.848;2023-02-28T11:40:02;7.60;95.80
42743;DHT22;28397;44.552;-0.848;2023-02-28T11:48:16;8.50;95.60
42743;DHT22;28397;44.552;-0.848;2023-02-28T11:53:46;7.70;95.90
42743;DHT22;28397;44.552;-0.848;2023-02-28T11:57:03;8.00;95.10
42743;DHT22;28397;44.552;-0.848;2023-02-28T12:02:51;8.10;93.90
42743;DHT22;28397;44.552;-0.848;2023-02-28T12:05:30;7.70;94.90
42743;DHT22;28397;44.552;-0.848;2023-02-28T12:19:20;8.10;96.30
42743;DHT22;28397;44.552;-0.848;2023-02-28T12:27:34;7.00;95.40
42743;DHT22;28397;44.552;-0.848;2023-02-28T12:30:21;7.50;95.30
42743;DHT22;28397;44.552;-0.848;2023-02-28T12:33:07;7.30;94.60
42743;DHT22;28397;44.552;-0.848;2023-02-28T12:35:45;7.50;95.50
42743;DHT22;28397;44.552;-0.848;2023-02-28T12:38:21;7.30;94.00
42743;DHT22;28397;44.552;-0.848;2023-02-28T12:41:00;7.10;93.60
42743;DHT22;28397;44.552;-0.848;2023-02-28T12:43:33;7.70;95.30
42743;DHT22;28397;44.552;-0.848;2023-02-28T12:46:05;8.00;95.50
42743;DHT22;28397;44.552;-0.848;2023-02-28T12:48:48;7.60;94.10
42743;DHT22;28397;44.552;-0.848;2023-02-28T12:51:16;7.90;95.50
42743;DHT22;28397;44.552;-0.848;2023-02-28T12:54:09;8.30;94.50
42743;DHT22;28397;44.552;-0.848;2023-02-28T12:57:38;7.30;94.90
42743;DHT22;28397;44.552;-0.848;2023-02-28T13:00:00;7.00;95.00
42743;DHT22;28397;44.552;-0.848;2023-02-28T13:05:39;9.30;96.80
42743;DHT22;28397;44.552;-0.848;2023-02-28T13:08:25;8.80;94.60
42743;DHT22;28397;44.552;-0.848;2023-02-28T13:10:53;9.30;96.00
42743;DHT22;28397;44.552;-0.848;2023-02-28T13:13:25;10.20;95.20
42743;DHT22;28397;44.552;-0.848;2023-02-28T13:16:06;9.90;95.40
42743;DHT22;28397;44.552;-0.848;2023-02-28T13:21:17;8.60;94.80
42743;DHT22;28397;44.552;-0.848;2023-02-28T13:34:32;7.90;96.00
42743;DHT22;28397;44.552;-0.848;2023-02-28T13:40:33;7.10;94.50
42743;DHT22;28397;44.552;-0.848;2023-02-28T13:43:02;7.20;94.90
42743;DHT22;28397;44.552;-0.848;2023-02-28T13:45:29;7.40;94.80
42743;DHT22;28397;44.552;-0.848;2023-02-28T13:48:26;8.20;95.30
42743;DHT22;28397;44.552;-0.848;2023-02-28T13:50:50;8.30;94.80
42743;DHT22;28397;44.552;-0.848;2023-02-28T13:56:04;7.90;95.20
42743;DHT22;28397;44.552;-0.848;2023-02-28T13:58:54;7.50;94.70
42743;DHT22;28397;44.552;-0.848;2023-02-28T14:04:17;7.70;95.20
42743;DHT22;28397;44.552;-0.848;2023-02-28T14:06:50;8.00;95.90
42743;DHT22;28397;44.552;-0.848;2023-02-28T14:09:39;8.00;96.60
42743;DHT22;28397;44.552;-0.848;2023-02-28T14:15:49;7.30;95.10
42743;DHT22;28397;44.552;-0.848;2023-02-28T14:18:29;7.30;94.10
42743;DHT22;28397;44.552;-0.848;2023-02-28T14:21:03;7.20;94.30
42743;DHT22;28397;44.552;-0.848;2023-02-28T14:37:44;8.30;96.40
42743;DHT22;28397;44.552;-0.848;2023-02-28T14:40:39;8.40;96.80
42743;DHT22;28397;44.552;-0.848;2023-02-28T14:43:16;8.10;94.30
42743;DHT22;28397;44.552;-0.848;2023-02-28T14:45:44;8.30;95.50
42743;DHT22;28397;44.552;-0.848;2023-02-28T14:48:16;7.80;95.10
42743;DHT22;28397;44.552;-0.848;2023-02-28T14:50:52;7.90;95.90
42743;DHT22;28397;44.552;-0.848;2023-02-28T14:53:21;7.80;95.30
42743;DHT22;28397;44.552;-0.848;2023-02-28T14:55:48;7.70;94.50
42743;DHT22;28397;44.552;-0.848;2023-02-28T14:58:33;7.70;95.80
42743;DHT22;28397;44.552;-0.848;2023-02-28T15:01:03;7.80;95.70
42743;DHT22;28397;44.552;-0.848;2023-02-28T15:03:33;8.40;95.50
42743;DHT22;28397;44.552;-0.848;2023-02-28T15:06:02;8.20;94.70
42743;DHT22;28397;44.552;-0.848;2023-02-28T15:08:29;8.20;95.30
42743;DHT22;28397;44.552;-0.848;2023-02-28T15:11:02;8.00;95.00
42743;DHT22;28397;44.552;-0.848;2023-02-28T15:13:36;7.20;94.90
42743;DHT22;28397;44.552;-0.848;2023-02-28T15:16:13;7.20;95.30
42743;DHT22;28397;44.552;-0.848;2023-02-28T15:18:49;6.90;94.80
42743;DHT22;28397;44.552;-0.848;2023-02-28T15:21:24;6.60;95.30
42743;DHT22;28397;44.552;-0.848;2023-02-28T15:24:10;6.60;95.80
42743;DHT22;28397;44.552;-0.848;2023-02-28T15:26:42;6.60;95.30
42743;DHT22;28397;44.552;-0.848;2023-02-28T15:29:19;6.60;96.30
42743;DHT22;28397;44.552;-0.848;2023-02-28T15:31:50;6.80;96.30
42743;DHT22;28397;44.552;-0.848;2023-02-28T15:34:21;7.10;96.20
42743;DHT22;28397;44.552;-0.848;2023-02-28T15:36:48;7.00;95.90
42743;DHT22;28397;44.552;-0.848;2023-02-28T15:39:25;7.00;95.20
42743;DHT22;28397;44.552;-0.848;2023-02-28T15:42:09;6.90;95.10
42743;DHT22;28397;44.552;-0.848;2023-02-28T15:44:35;6.80;94.60
42743;DHT22;28397;44.552;-0.848;2023-02-28T15:47:16;6.80;95.20
42743;DHT22;28397;44.552;-0.848;2023-02-28T15:52:18;6.50;95.30
42743;DHT22;28397;44.552;-0.848;2023-02-28T15:54:45;6.80;96.50
42743;DHT22;28397;44.552;-0.848;2023-02-28T15:57:15;7.10;96.20
42743;DHT22;28397;44.552;-0.848;2023-02-28T15:59:50;7.20;95.60
42743;DHT22;28397;44.552;-0.848;2023-02-28T16:02:22;7.50;96.30
42743;DHT22;28397;44.552;-0.848;2023-02-28T16:04:57;7.50;95.70
42743;DHT22;28397;44.552;-0.848;2023-02-28T16:07:23;7.70;95.00
42743;DHT22;28397;44.552;-0.848;2023-02-28T16:09:50;6.90;94.80
42743;DHT22;28397;44.552;-0.848;2023-02-28T16:12:15;7.00;95.50
42743;DHT22;28397;44.552;-0.848;2023-02-28T16:14:41;7.10;96.60
42743;DHT22;28397;44.552;-0.848;2023-02-28T16:17:19;7.10;95.80
42743;DHT22;28397;44.552;-0.848;2023-02-28T16:19:45;7.00;95.80
42743;DHT22;28397;44.552;-0.848;2023-02-28T16:22:11;6.50;95.30
42743;DHT22;28397;44.552;-0.848;2023-02-28T16:24:36;6.50;96.20
42743;DHT22;28397;44.552;-0.848;2023-02-28T16:27:04;6.70;95.90
42743;DHT22;28397;44.552;-0.848;2023-02-28T16:29:33;6.80;96.10
42743;DHT22;28397;44.552;-0.848;2023-02-28T16:32:00;6.40;95.30
42743;DHT22;28397;44.552;-0.848;2023-02-28T16:34:26;6.30;95.30
42743;DHT22;28397;44.552;-0.848;2023-02-28T16:36:52;6.30;95.30
42743;DHT22;28397;44.552;-0.848;2023-02-28T16:39:18;6.30;95.00
42743;DHT22;28397;44.552;-0.848;2023-02-28T16:41:47;6.40;95.60
42743;DHT22;28397;44.552;-0.848;2023-02-28T16:44:40;6.30;95.20
42743;DHT22;28397;44.552;-0.848;2023-02-28T16:47:05;6.30;94.90
42743;DHT22;28397;44.552;-0.848;2023-02-28T16:49:31;6.10;94.80
42743;DHT22;28397;44.552;-0.848;2023-02-28T16:51:57;6.20;95.00
42743;DHT22;28397;44.552;-0.848;2023-02-28T16:54:23;6.50;95.60
42743;DHT22;28397;44.552;-0.848;2023-02-28T16:56:49;6.20;95.00
42743;DHT22;28397;44.552;-0.848;2023-02-28T16:59:19;6.40;95.60
42743;DHT22;28397;44.552;-0.848;2023-02-28T17:01:46;6.30;94.90
42743;DHT22;28397;44.552;-0.848;2023-02-28T17:04:12;6.10;95.90
42743;DHT22;28397;44.552;-0.848;2023-02-28T17:06:39;6.00;95.60
42743;DHT22;28397;44.552;-0.848;2023-02-28T17:09:05;5.90;95.80
42743;DHT22;28397;44.552;-0.848;2023-02-28T17:11:39;5.90;95.70
42743;DHT22;28397;44.552;-0.848;2023-02-28T17:14:05;5.80;95.80
42743;DHT22;28397;44.552;-0.848;2023-02-28T17:16:33;5.80;95.80
42743;DHT22;28397;44.552;-0.848;2023-02-28T17:19:01;5.60;95.70
42743;DHT22;28397;44.552;-0.848;2023-02-28T17:21:28;5.60;96.10
42743;DHT22;28397;44.552;-0.848;2023-02-28T17:23:54;5.60;96.00
42743;DHT22;28397;44.552;-0.848;2023-02-28T17:26:20;5.50;96.10
42743;DHT22;28397;44.552;-0.848;2023-02-28T17:28:50;5.60;96.60
42743;DHT22;28397;44.552;-0.848;2023-02-28T17:31:16;5.40;96.30
42743;DHT22;28397;44.552;-0.848;2023-02-28T17:33:42;5.40;96.60
42743;DHT22;28397;44.552;-0.848;2023-02-28T17:36:15;5.40;96.60
42743;DHT22;28397;44.552;-0.848;2023-02-28T17:38:41;5.30;96.90
42743;DHT22;28397;44.552;-0.848;2023-02-28T17:41:10;5.20;96.60
42743;DHT22;28397;44.552;-0.848;2023-02-28T17:43:35;5.20;96.80
42743;DHT22;28397;44.552;-0.848;2023-02-28T17:46:01;5.00;96.80
42743;DHT22;28397;44.552;-0.848;2023-02-28T17:48:27;4.90;97.20
42743;DHT22;28397;44.552;-0.848;2023-02-28T17:50:53;4.90;97.00
42743;DHT22;28397;44.552;-0.848;2023-02-28T17:53:19;4.90;97.60
42743;DHT22;28397;44.552;-0.848;2023-02-28T17:55:51;4.90;97.90
42743;DHT22;28397;44.552;-0.848;2023-02-28T17:58:16;4.80;98.20
42743;DHT22;28397;44.552;-0.848;2023-02-28T18:00:44;4.80;98.10